sensor_id;sensor_type;location;lat;lon;timestamp;P1;durP1;ratioP1;P2;durP2;ratioP2
62707;SDS011;48769;51.624;5.886;2023-04-29T00:00:08;102.43;;;50.50;;
62707;SDS011;48769;51.624;5.886;2023-04-29T00:02:34;89.65;;;48.67;;
62707;SDS011;48769;51.624;5.886;2023-04-29T00:04:59;91.45;;;47.45;;
62707;SDS011;48769;51.624;5.886;2023-04-29T00:07:25;92.05;;;47.13;;
62707;SDS011;48769;51.624;5.886;2023-04-29T00:09:50;97.50;;;48.55;;
62707;SDS011;48769;51.624;5.886;2023-04-29T00:12:15;94.53;;;49.30;;
62707;SDS011;48769;51.624;5.886;2023-04-29T00:14:41;94.93;;;47.80;;
62707;SDS011;48769;51.624;5.886;2023-04-29T00:17:07;101.32;;;50.70;;
62707;SDS011;48769;51.624;5.886;2023-04-29T00:19:33;103.60;;;51.58;;
62707;SDS011;48769;51.624;5.886;2023-04-29T00:21:58;100.00;;;52.67;;
62707;SDS011;48769;51.624;5.886;2023-04-29T00:24:24;100.57;;;54.92;;
62707;SDS011;48769;51.624;5.886;2023-04-29T00:26:49;92.40;;;53.22;;
62707;SDS011;48769;51.624;5.886;2023-04-29T00:29:14;90.97;;;49.45;;
62707;SDS011;48769;51.624;5.886;2023-04-29T00:31:40;96.85;;;51.92;;
62707;SDS011;48769;51.624;5.886;2023-04-29T00:34:05;99.97;;;55.95;;
62707;SDS011;48769;51.624;5.886;2023-04-29T00:36:31;106.88;;;56.58;;
62707;SDS011;48769;51.624;5.886;2023-04-29T00:38:56;107.10;;;57.13;;
62707;SDS011;48769;51.624;5.886;2023-04-29T00:41:22;106.03;;;57.50;;
62707;SDS011;48769;51.624;5.886;2023-04-29T00:43:48;104.72;;;59.50;;
62707;SDS011;48769;51.624;5.886;2023-04-29T00:46:13;101.65;;;59.45;;
62707;SDS011;48769;51.624;5.886;2023-04-29T00:48:39;106.13;;;62.83;;
62707;SDS011;48769;51.624;5.886;2023-04-29T00:51:05;104.10;;;60.53;;
62707;SDS011;48769;51.624;5.886;2023-04-29T00:53:31;100.95;;;62.40;;
62707;SDS011;48769;51.624;5.886;2023-04-29T00:55:57;102.43;;;61.60;;
62707;SDS011;48769;51.624;5.886;2023-04-29T00:58:24;96.20;;;58.72;;
62707;SDS011;48769;51.624;5.886;2023-04-29T01:00:57;91.78;;;58.78;;
62707;SDS011;48769;51.624;5.886;2023-04-29T01:03:23;92.50;;;56.33;;
62707;SDS011;48769;51.624;5.886;2023-04-29T01:05:50;90.20;;;54.30;;
62707;SDS011;48769;51.624;5.886;2023-04-29T01:11:07;88.90;;;50.67;;
62707;SDS011;48769;51.624;5.886;2023-04-29T01:16:10;74.72;;;45.03;;
62707;SDS011;48769;51.624;5.886;2023-04-29T01:18:42;74.32;;;45.67;;
62707;SDS011;48769;51.624;5.886;2023-04-29T01:21:13;72.55;;;44.50;;
62707;SDS011;48769;51.624;5.886;2023-04-29T01:23:39;76.65;;;46.63;;
62707;SDS011;48769;51.624;5.886;2023-04-29T01:26:05;70.03;;;44.40;;
62707;SDS011;48769;51.624;5.886;2023-04-29T01:28:46;74.93;;;45.33;;
62707;SDS011;48769;51.624;5.886;2023-04-29T01:31:40;73.25;;;43.40;;
62707;SDS011;48769;51.624;5.886;2023-04-29T01:34:25;75.38;;;43.67;;
62707;SDS011;48769;51.624;5.886;2023-04-29T01:38:15;74.15;;;41.38;;
62707;SDS011;48769;51.624;5.886;2023-04-29T01:40:11;76.55;;;44.92;;
62707;SDS011;48769;51.624;5.886;2023-04-29T01:43:02;78.47;;;46.20;;
62707;SDS011;48769;51.624;5.886;2023-04-29T01:45:28;77.18;;;44.58;;
62707;SDS011;48769;51.624;5.886;2023-04-29T01:47:55;79.55;;;46.60;;
62707;SDS011;48769;51.624;5.886;2023-04-29T01:50:21;73.90;;;45.05;;
62707;SDS011;48769;51.624;5.886;2023-04-29T01:52:47;77.63;;;45.35;;
62707;SDS011;48769;51.624;5.886;2023-04-29T01:55:13;78.05;;;45.65;;
62707;SDS011;48769;51.624;5.886;2023-04-29T01:57:38;79.35;;;45.88;;
62707;SDS011;48769;51.624;5.886;2023-04-29T02:00:03;76.45;;;45.92;;
62707;SDS011;48769;51.624;5.886;2023-04-29T02:02:29;76.55;;;45.65;;
62707;SDS011;48769;51.624;5.886;2023-04-29T02:04:55;76.05;;;45.17;;
62707;SDS011;48769;51.624;5.886;2023-04-29T02:07:20;73.40;;;44.80;;
62707;SDS011;48769;51.624;5.886;2023-04-29T02:09:45;78.45;;;47.30;;
62707;SDS011;48769;51.624;5.886;2023-04-29T02:12:11;82.47;;;46.50;;
62707;SDS011;48769;51.624;5.886;2023-04-29T02:14:36;74.43;;;43.53;;
62707;SDS011;48769;51.624;5.886;2023-04-29T02:17:01;94.10;;;47.58;;
62707;SDS011;48769;51.624;5.886;2023-04-29T02:19:27;77.10;;;44.50;;
62707;SDS011;48769;51.624;5.886;2023-04-29T02:21:52;80.90;;;43.97;;
62707;SDS011;48769;51.624;5.886;2023-04-29T02:24:17;82.03;;;46.08;;
62707;SDS011;48769;51.624;5.886;2023-04-29T02:26:43;86.78;;;47.60;;
62707;SDS011;48769;51.624;5.886;2023-04-29T02:29:08;79.05;;;43.70;;
62707;SDS011;48769;51.624;5.886;2023-04-29T02:31:34;85.15;;;44.90;;
62707;SDS011;48769;51.624;5.886;2023-04-29T02:33:59;75.25;;;44.58;;
62707;SDS011;48769;51.624;5.886;2023-04-29T02:36:25;74.38;;;43.33;;
62707;SDS011;48769;51.624;5.886;2023-04-29T02:38:50;79.07;;;43.55;;
62707;SDS011;48769;51.624;5.886;2023-04-29T02:41:19;70.75;;;42.67;;
62707;SDS011;48769;51.624;5.886;2023-04-29T02:43:45;85.50;;;42.08;;
62707;SDS011;48769;51.624;5.886;2023-04-29T02:46:12;84.95;;;42.55;;
62707;SDS011;48769;51.624;5.886;2023-04-29T02:48:38;79.43;;;44.63;;
62707;SDS011;48769;51.624;5.886;2023-04-29T02:51:03;73.57;;;41.17;;
62707;SDS011;48769;51.624;5.886;2023-04-29T02:53:29;72.97;;;41.85;;
62707;SDS011;48769;51.624;5.886;2023-04-29T02:55:54;75.55;;;41.63;;
62707;SDS011;48769;51.624;5.886;2023-04-29T02:58:19;77.20;;;40.08;;
62707;SDS011;48769;51.624;5.886;2023-04-29T03:00:45;75.57;;;40.75;;
62707;SDS011;48769;51.624;5.886;2023-04-29T03:03:10;72.45;;;39.47;;
62707;SDS011;48769;51.624;5.886;2023-04-29T03:05:36;70.40;;;37.63;;
62707;SDS011;48769;51.624;5.886;2023-04-29T03:08:01;73.82;;;38.80;;
62707;SDS011;48769;51.624;5.886;2023-04-29T03:10:28;69.97;;;38.92;;
62707;SDS011;48769;51.624;5.886;2023-04-29T03:12:53;71.13;;;38.60;;
62707;SDS011;48769;51.624;5.886;2023-04-29T03:15:18;72.22;;;39.60;;
62707;SDS011;48769;51.624;5.886;2023-04-29T03:17:44;69.32;;;37.70;;
62707;SDS011;48769;51.624;5.886;2023-04-29T03:20:10;63.42;;;36.90;;
62707;SDS011;48769;51.624;5.886;2023-04-29T03:22:36;68.68;;;37.15;;
62707;SDS011;48769;51.624;5.886;2023-04-29T03:25:01;70.53;;;37.42;;
62707;SDS011;48769;51.624;5.886;2023-04-29T03:27:26;70.95;;;37.53;;
62707;SDS011;48769;51.624;5.886;2023-04-29T03:29:52;78.05;;;38.33;;
62707;SDS011;48769;51.624;5.886;2023-04-29T03:32:17;69.72;;;37.30;;
62707;SDS011;48769;51.624;5.886;2023-04-29T03:34:43;71.68;;;37.00;;
62707;SDS011;48769;51.624;5.886;2023-04-29T03:37:08;67.75;;;35.92;;
62707;SDS011;48769;51.624;5.886;2023-04-29T03:39:33;70.47;;;37.58;;
62707;SDS011;48769;51.624;5.886;2023-04-29T03:41:58;68.45;;;36.60;;
62707;SDS011;48769;51.624;5.886;2023-04-29T03:44:25;76.53;;;37.70;;
62707;SDS011;48769;51.624;5.886;2023-04-29T03:46:50;69.47;;;37.45;;
62707;SDS011;48769;51.624;5.886;2023-04-29T03:49:16;78.80;;;38.67;;
62707;SDS011;48769;51.624;5.886;2023-04-29T03:51:41;70.72;;;37.53;;
62707;SDS011;48769;51.624;5.886;2023-04-29T03:54:07;71.93;;;38.42;;
62707;SDS011;48769;51.624;5.886;2023-04-29T03:56:33;69.50;;;37.17;;
62707;SDS011;48769;51.624;5.886;2023-04-29T03:58:59;78.82;;;38.50;;
62707;SDS011;48769;51.624;5.886;2023-04-29T04:01:25;68.10;;;36.28;;
62707;SDS011;48769;51.624;5.886;2023-04-29T04:03:50;71.30;;;35.97;;
62707;SDS011;48769;51.624;5.886;2023-04-29T04:06:16;70.10;;;36.42;;
62707;SDS011;48769;51.624;5.886;2023-04-29T04:08:41;68.90;;;36.05;;
62707;SDS011;48769;51.624;5.886;2023-04-29T04:11:06;76.10;;;35.90;;
62707;SDS011;48769;51.624;5.886;2023-04-29T04:13:33;67.60;;;36.42;;
62707;SDS011;48769;51.624;5.886;2023-04-29T04:15:59;69.72;;;36.55;;
62707;SDS011;48769;51.624;5.886;2023-04-29T04:18:24;70.78;;;36.42;;
62707;SDS011;48769;51.624;5.886;2023-04-29T04:20:49;78.80;;;37.78;;
62707;SDS011;48769;51.624;5.886;2023-04-29T04:23:15;64.80;;;36.40;;
62707;SDS011;48769;51.624;5.886;2023-04-29T04:25:47;73.57;;;37.60;;
62707;SDS011;48769;51.624;5.886;2023-04-29T04:28:13;73.55;;;38.22;;
62707;SDS011;48769;51.624;5.886;2023-04-29T04:30:38;71.65;;;37.53;;
62707;SDS011;48769;51.624;5.886;2023-04-29T04:33:04;71.10;;;38.47;;
62707;SDS011;48769;51.624;5.886;2023-04-29T04:35:30;72.40;;;38.67;;
62707;SDS011;48769;51.624;5.886;2023-04-29T04:37:55;76.25;;;39.40;;
62707;SDS011;48769;51.624;5.886;2023-04-29T04:40:21;74.53;;;40.20;;
62707;SDS011;48769;51.624;5.886;2023-04-29T04:42:46;72.97;;;38.70;;
62707;SDS011;48769;51.624;5.886;2023-04-29T04:45:12;73.47;;;39.97;;
62707;SDS011;48769;51.624;5.886;2023-04-29T04:47:39;71.18;;;39.20;;
62707;SDS011;48769;51.624;5.886;2023-04-29T04:50:05;78.32;;;38.50;;
62707;SDS011;48769;51.624;5.886;2023-04-29T04:52:31;74.05;;;39.33;;
62707;SDS011;48769;51.624;5.886;2023-04-29T04:54:56;66.43;;;38.42;;
62707;SDS011;48769;51.624;5.886;2023-04-29T04:57:22;70.30;;;38.97;;
62707;SDS011;48769;51.624;5.886;2023-04-29T04:59:47;75.15;;;39.88;;
62707;SDS011;48769;51.624;5.886;2023-04-29T05:02:13;73.65;;;38.10;;
62707;SDS011;48769;51.624;5.886;2023-04-29T05:04:38;68.10;;;38.65;;
62707;SDS011;48769;51.624;5.886;2023-04-29T05:07:03;64.68;;;37.72;;
62707;SDS011;48769;51.624;5.886;2023-04-29T05:09:29;71.43;;;40.25;;
62707;SDS011;48769;51.624;5.886;2023-04-29T05:11:55;71.55;;;39.15;;
62707;SDS011;48769;51.624;5.886;2023-04-29T05:14:20;63.70;;;38.05;;
62707;SDS011;48769;51.624;5.886;2023-04-29T05:16:45;70.63;;;37.92;;
62707;SDS011;48769;51.624;5.886;2023-04-29T05:19:15;69.38;;;38.22;;
62707;SDS011;48769;51.624;5.886;2023-04-29T05:21:40;70.57;;;38.40;;
62707;SDS011;48769;51.624;5.886;2023-04-29T05:24:09;70.07;;;38.10;;
62707;SDS011;48769;51.624;5.886;2023-04-29T05:26:37;67.90;;;38.08;;
62707;SDS011;48769;51.624;5.886;2023-04-29T05:29:03;61.53;;;35.53;;
62707;SDS011;48769;51.624;5.886;2023-04-29T05:31:28;64.53;;;35.80;;
62707;SDS011;48769;51.624;5.886;2023-04-29T05:33:53;62.58;;;38.03;;
62707;SDS011;48769;51.624;5.886;2023-04-29T05:36:18;62.92;;;37.97;;
62707;SDS011;48769;51.624;5.886;2023-04-29T05:38:44;70.63;;;43.15;;
62707;SDS011;48769;51.624;5.886;2023-04-29T05:41:12;67.57;;;37.72;;
62707;SDS011;48769;51.624;5.886;2023-04-29T05:43:38;81.32;;;51.50;;
62707;SDS011;48769;51.624;5.886;2023-04-29T05:46:03;72.03;;;47.78;;
62707;SDS011;48769;51.624;5.886;2023-04-29T05:48:28;59.60;;;37.60;;
62707;SDS011;48769;51.624;5.886;2023-04-29T05:50:54;70.75;;;37.20;;
62707;SDS011;48769;51.624;5.886;2023-04-29T05:53:20;56.78;;;34.53;;
62707;SDS011;48769;51.624;5.886;2023-04-29T05:55:45;61.08;;;35.83;;
62707;SDS011;48769;51.624;5.886;2023-04-29T05:58:11;53.25;;;35.20;;
62707;SDS011;48769;51.624;5.886;2023-04-29T06:00:37;53.30;;;34.15;;
62707;SDS011;48769;51.624;5.886;2023-04-29T06:03:02;53.65;;;34.45;;
62707;SDS011;48769;51.624;5.886;2023-04-29T06:05:28;52.75;;;33.40;;
62707;SDS011;48769;51.624;5.886;2023-04-29T06:07:53;52.70;;;32.15;;
62707;SDS011;48769;51.624;5.886;2023-04-29T06:10:19;56.30;;;34.33;;
62707;SDS011;48769;51.624;5.886;2023-04-29T06:12:44;52.17;;;33.42;;
62707;SDS011;48769;51.624;5.886;2023-04-29T06:15:10;54.35;;;33.03;;
62707;SDS011;48769;51.624;5.886;2023-04-29T06:17:36;50.90;;;30.98;;
62707;SDS011;48769;51.624;5.886;2023-04-29T06:20:01;58.25;;;30.65;;
62707;SDS011;48769;51.624;5.886;2023-04-29T06:22:27;92.30;;;55.33;;
62707;SDS011;48769;51.624;5.886;2023-04-29T06:24:52;76.35;;;44.92;;
62707;SDS011;48769;51.624;5.886;2023-04-29T06:27:18;90.38;;;53.33;;
62707;SDS011;48769;51.624;5.886;2023-04-29T06:29:43;60.45;;;39.80;;
62707;SDS011;48769;51.624;5.886;2023-04-29T06:32:08;78.35;;;46.63;;
62707;SDS011;48769;51.624;5.886;2023-04-29T06:34:34;72.63;;;44.67;;
62707;SDS011;48769;51.624;5.886;2023-04-29T06:37:00;57.20;;;36.42;;
62707;SDS011;48769;51.624;5.886;2023-04-29T06:39:25;60.38;;;39.15;;
62707;SDS011;48769;51.624;5.886;2023-04-29T06:41:50;51.55;;;31.95;;
62707;SDS011;48769;51.624;5.886;2023-04-29T06:44:16;55.50;;;32.17;;
62707;SDS011;48769;51.624;5.886;2023-04-29T06:46:42;47.78;;;31.33;;
62707;SDS011;48769;51.624;5.886;2023-04-29T06:49:07;45.45;;;31.65;;
62707;SDS011;48769;51.624;5.886;2023-04-29T06:51:32;47.47;;;31.08;;
62707;SDS011;48769;51.624;5.886;2023-04-29T06:53:58;45.10;;;31.75;;
62707;SDS011;48769;51.624;5.886;2023-04-29T06:56:23;47.85;;;30.88;;
62707;SDS011;48769;51.624;5.886;2023-04-29T06:58:48;46.28;;;30.02;;
62707;SDS011;48769;51.624;5.886;2023-04-29T07:01:14;44.28;;;29.52;;
62707;SDS011;48769;51.624;5.886;2023-04-29T07:03:39;41.83;;;28.38;;
62707;SDS011;48769;51.624;5.886;2023-04-29T07:06:05;42.63;;;28.80;;
62707;SDS011;48769;51.624;5.886;2023-04-29T07:08:30;42.53;;;28.73;;
62707;SDS011;48769;51.624;5.886;2023-04-29T07:10:56;39.22;;;27.52;;
62707;SDS011;48769;51.624;5.886;2023-04-29T07:13:23;41.78;;;26.67;;
62707;SDS011;48769;51.624;5.886;2023-04-29T07:15:49;42.03;;;27.10;;
62707;SDS011;48769;51.624;5.886;2023-04-29T07:18:14;35.25;;;25.70;;
62707;SDS011;48769;51.624;5.886;2023-04-29T07:20:39;37.85;;;26.83;;
62707;SDS011;48769;51.624;5.886;2023-04-29T07:23:05;40.00;;;28.00;;
62707;SDS011;48769;51.624;5.886;2023-04-29T07:25:30;39.83;;;28.23;;
62707;SDS011;48769;51.624;5.886;2023-04-29T07:27:56;43.97;;;28.25;;
62707;SDS011;48769;51.624;5.886;2023-04-29T07:30:21;40.13;;;28.45;;
62707;SDS011;48769;51.624;5.886;2023-04-29T07:32:47;42.97;;;28.77;;
62707;SDS011;48769;51.624;5.886;2023-04-29T07:35:13;38.90;;;27.23;;
62707;SDS011;48769;51.624;5.886;2023-04-29T07:37:38;38.42;;;27.45;;
62707;SDS011;48769;51.624;5.886;2023-04-29T07:40:04;40.38;;;27.38;;
62707;SDS011;48769;51.624;5.886;2023-04-29T07:42:30;41.28;;;28.73;;
62707;SDS011;48769;51.624;5.886;2023-04-29T07:44:55;40.47;;;28.02;;
62707;SDS011;48769;51.624;5.886;2023-04-29T07:47:21;49.05;;;28.63;;
62707;SDS011;48769;51.624;5.886;2023-04-29T07:49:46;38.17;;;27.52;;
62707;SDS011;48769;51.624;5.886;2023-04-29T07:52:12;36.83;;;27.05;;
62707;SDS011;48769;51.624;5.886;2023-04-29T07:54:37;44.08;;;28.27;;
62707;SDS011;48769;51.624;5.886;2023-04-29T07:57:02;38.28;;;27.92;;
62707;SDS011;48769;51.624;5.886;2023-04-29T07:59:28;43.83;;;28.60;;
62707;SDS011;48769;51.624;5.886;2023-04-29T08:01:56;38.08;;;27.83;;
62707;SDS011;48769;51.624;5.886;2023-04-29T08:04:22;43.45;;;27.25;;
62707;SDS011;48769;51.624;5.886;2023-04-29T08:06:48;40.47;;;26.83;;
62707;SDS011;48769;51.624;5.886;2023-04-29T08:09:14;41.85;;;27.25;;
62707;SDS011;48769;51.624;5.886;2023-04-29T08:11:39;35.92;;;25.83;;
62707;SDS011;48769;51.624;5.886;2023-04-29T08:14:05;39.35;;;26.88;;
62707;SDS011;48769;51.624;5.886;2023-04-29T08:16:30;40.15;;;26.25;;
62707;SDS011;48769;51.624;5.886;2023-04-29T08:18:56;35.95;;;26.77;;
62707;SDS011;48769;51.624;5.886;2023-04-29T08:21:22;37.55;;;25.65;;
62707;SDS011;48769;51.624;5.886;2023-04-29T08:23:47;38.63;;;26.85;;
62707;SDS011;48769;51.624;5.886;2023-04-29T08:26:12;36.60;;;25.95;;
62707;SDS011;48769;51.624;5.886;2023-04-29T08:28:38;35.80;;;26.00;;
62707;SDS011;48769;51.624;5.886;2023-04-29T08:31:04;40.00;;;26.40;;
62707;SDS011;48769;51.624;5.886;2023-04-29T08:33:32;32.90;;;25.52;;
62707;SDS011;48769;51.624;5.886;2023-04-29T08:36:00;34.15;;;25.75;;
62707;SDS011;48769;51.624;5.886;2023-04-29T08:38:28;33.42;;;25.25;;
62707;SDS011;48769;51.624;5.886;2023-04-29T08:40:54;35.80;;;25.20;;
62707;SDS011;48769;51.624;5.886;2023-04-29T08:43:20;37.65;;;25.85;;
62707;SDS011;48769;51.624;5.886;2023-04-29T08:45:46;37.00;;;25.75;;
62707;SDS011;48769;51.624;5.886;2023-04-29T08:48:13;34.25;;;24.02;;
62707;SDS011;48769;51.624;5.886;2023-04-29T08:50:40;33.22;;;24.98;;
62707;SDS011;48769;51.624;5.886;2023-04-29T08:53:09;32.00;;;22.88;;
62707;SDS011;48769;51.624;5.886;2023-04-29T08:55:54;31.75;;;24.08;;
62707;SDS011;48769;51.624;5.886;2023-04-29T08:58:25;33.22;;;24.45;;
62707;SDS011;48769;51.624;5.886;2023-04-29T09:00:53;37.05;;;22.85;;
62707;SDS011;48769;51.624;5.886;2023-04-29T09:06:18;36.67;;;22.98;;
62707;SDS011;48769;51.624;5.886;2023-04-29T09:08:45;32.60;;;22.33;;
62707;SDS011;48769;51.624;5.886;2023-04-29T09:11:11;33.20;;;23.33;;
62707;SDS011;48769;51.624;5.886;2023-04-29T09:13:36;33.22;;;23.92;;
62707;SDS011;48769;51.624;5.886;2023-04-29T09:16:02;34.35;;;22.23;;
62707;SDS011;48769;51.624;5.886;2023-04-29T09:18:47;32.13;;;23.10;;
62707;SDS011;48769;51.624;5.886;2023-04-29T09:21:21;31.13;;;22.17;;
62707;SDS011;48769;51.624;5.886;2023-04-29T09:23:55;30.35;;;20.05;;
62707;SDS011;48769;51.624;5.886;2023-04-29T09:26:22;34.88;;;21.70;;
62707;SDS011;48769;51.624;5.886;2023-04-29T09:31:33;29.42;;;22.33;;
62707;SDS011;48769;51.624;5.886;2023-04-29T09:33:59;30.95;;;21.88;;
62707;SDS011;48769;51.624;5.886;2023-04-29T09:36:34;30.80;;;19.75;;
62707;SDS011;48769;51.624;5.886;2023-04-29T09:39:00;32.30;;;21.58;;
62707;SDS011;48769;51.624;5.886;2023-04-29T09:41:26;40.67;;;21.63;;
62707;SDS011;48769;51.624;5.886;2023-04-29T09:44:04;30.02;;;21.15;;
62707;SDS011;48769;51.624;5.886;2023-04-29T09:46:34;31.20;;;19.67;;
62707;SDS011;48769;51.624;5.886;2023-04-29T09:49:02;27.92;;;18.75;;
62707;SDS011;48769;51.624;5.886;2023-04-29T09:51:30;26.35;;;19.00;;
62707;SDS011;48769;51.624;5.886;2023-04-29T09:53:56;30.30;;;18.17;;
62707;SDS011;48769;51.624;5.886;2023-04-29T09:56:26;33.58;;;19.48;;
62707;SDS011;48769;51.624;5.886;2023-04-29T09:58:54;26.70;;;17.67;;
62707;SDS011;48769;51.624;5.886;2023-04-29T10:01:21;26.85;;;19.15;;
62707;SDS011;48769;51.624;5.886;2023-04-29T10:03:46;30.63;;;18.85;;
62707;SDS011;48769;51.624;5.886;2023-04-29T10:06:13;28.45;;;19.33;;
62707;SDS011;48769;51.624;5.886;2023-04-29T10:08:41;26.98;;;18.15;;
62707;SDS011;48769;51.624;5.886;2023-04-29T10:11:08;24.73;;;17.48;;
62707;SDS011;48769;51.624;5.886;2023-04-29T10:13:35;27.83;;;18.70;;
62707;SDS011;48769;51.624;5.886;2023-04-29T10:18:40;26.08;;;18.25;;
62707;SDS011;48769;51.624;5.886;2023-04-29T10:21:08;22.75;;;17.02;;
62707;SDS011;48769;51.624;5.886;2023-04-29T10:23:36;28.95;;;18.23;;
62707;SDS011;48769;51.624;5.886;2023-04-29T10:26:02;23.45;;;15.93;;
62707;SDS011;48769;51.624;5.886;2023-04-29T10:28:30;27.70;;;16.90;;
62707;SDS011;48769;51.624;5.886;2023-04-29T10:30:57;24.80;;;17.52;;
62707;SDS011;48769;51.624;5.886;2023-04-29T10:33:25;23.45;;;16.00;;
62707;SDS011;48769;51.624;5.886;2023-04-29T10:35:54;26.27;;;17.20;;
62707;SDS011;48769;51.624;5.886;2023-04-29T10:38:22;26.55;;;16.80;;
62707;SDS011;48769;51.624;5.886;2023-04-29T10:40:52;19.45;;;15.20;;
62707;SDS011;48769;51.624;5.886;2023-04-29T10:43:24;20.15;;;15.95;;
62707;SDS011;48769;51.624;5.886;2023-04-29T10:46:09;21.00;;;15.50;;
62707;SDS011;48769;51.624;5.886;2023-04-29T10:48:42;22.42;;;16.40;;
62707;SDS011;48769;51.624;5.886;2023-04-29T10:51:08;23.85;;;16.10;;
62707;SDS011;48769;51.624;5.886;2023-04-29T10:53:33;21.42;;;15.23;;
62707;SDS011;48769;51.624;5.886;2023-04-29T10:56:03;21.92;;;14.32;;
62707;SDS011;48769;51.624;5.886;2023-04-29T10:58:36;20.65;;;14.55;;
62707;SDS011;48769;51.624;5.886;2023-04-29T11:01:03;20.85;;;14.38;;
62707;SDS011;48769;51.624;5.886;2023-04-29T11:06:10;21.65;;;15.95;;
62707;SDS011;48769;51.624;5.886;2023-04-29T11:08:38;22.88;;;14.75;;
62707;SDS011;48769;51.624;5.886;2023-04-29T11:11:04;20.60;;;15.80;;
62707;SDS011;48769;51.624;5.886;2023-04-29T11:13:31;20.65;;;15.50;;
62707;SDS011;48769;51.624;5.886;2023-04-29T11:16:04;21.85;;;15.77;;
62707;SDS011;48769;51.624;5.886;2023-04-29T11:18:32;19.00;;;15.07;;
62707;SDS011;48769;51.624;5.886;2023-04-29T11:23:38;16.85;;;12.73;;
62707;SDS011;48769;51.624;5.886;2023-04-29T11:26:09;17.63;;;13.10;;
62707;SDS011;48769;51.624;5.886;2023-04-29T11:28:35;18.17;;;13.10;;
62707;SDS011;48769;51.624;5.886;2023-04-29T11:31:00;20.42;;;13.90;;
62707;SDS011;48769;51.624;5.886;2023-04-29T11:33:31;20.77;;;13.75;;
62707;SDS011;48769;51.624;5.886;2023-04-29T11:35:57;20.05;;;14.55;;
62707;SDS011;48769;51.624;5.886;2023-04-29T11:38:25;18.52;;;13.25;;
62707;SDS011;48769;51.624;5.886;2023-04-29T11:40:51;17.90;;;12.82;;
62707;SDS011;48769;51.624;5.886;2023-04-29T11:43:18;16.58;;;12.45;;
62707;SDS011;48769;51.624;5.886;2023-04-29T11:45:44;16.83;;;12.25;;
62707;SDS011;48769;51.624;5.886;2023-04-29T11:48:20;18.17;;;11.77;;
62707;SDS011;48769;51.624;5.886;2023-04-29T11:50:50;18.20;;;11.20;;
62707;SDS011;48769;51.624;5.886;2023-04-29T11:53:21;15.38;;;11.02;;
62707;SDS011;48769;51.624;5.886;2023-04-29T11:55:49;17.63;;;11.13;;
62707;SDS011;48769;51.624;5.886;2023-04-29T11:58:16;18.95;;;11.88;;
62707;SDS011;48769;51.624;5.886;2023-04-29T12:00:45;17.67;;;11.27;;
62707;SDS011;48769;51.624;5.886;2023-04-29T12:03:15;19.00;;;12.73;;
62707;SDS011;48769;51.624;5.886;2023-04-29T12:05:49;14.85;;;12.45;;
62707;SDS011;48769;51.624;5.886;2023-04-29T12:08:19;19.90;;;12.13;;
62707;SDS011;48769;51.624;5.886;2023-04-29T12:10:49;15.85;;;13.00;;
62707;SDS011;48769;51.624;5.886;2023-04-29T12:13:15;16.25;;;11.45;;
62707;SDS011;48769;51.624;5.886;2023-04-29T12:15:41;14.90;;;11.10;;
62707;SDS011;48769;51.624;5.886;2023-04-29T12:18:08;15.63;;;11.48;;
62707;SDS011;48769;51.624;5.886;2023-04-29T12:20:34;16.23;;;11.27;;
62707;SDS011;48769;51.624;5.886;2023-04-29T12:23:16;14.88;;;9.82;;
62707;SDS011;48769;51.624;5.886;2023-04-29T12:25:52;15.32;;;11.10;;
62707;SDS011;48769;51.624;5.886;2023-04-29T12:28:19;17.65;;;10.95;;
62707;SDS011;48769;51.624;5.886;2023-04-29T12:30:46;15.95;;;10.82;;
62707;SDS011;48769;51.624;5.886;2023-04-29T12:33:21;16.70;;;10.32;;
62707;SDS011;48769;51.624;5.886;2023-04-29T12:35:49;15.48;;;10.27;;
62707;SDS011;48769;51.624;5.886;2023-04-29T12:38:20;17.52;;;10.45;;
62707;SDS011;48769;51.624;5.886;2023-04-29T12:40:47;14.93;;;10.32;;
62707;SDS011;48769;51.624;5.886;2023-04-29T12:43:12;13.68;;;10.02;;
62707;SDS011;48769;51.624;5.886;2023-04-29T12:45:38;13.15;;;10.60;;
62707;SDS011;48769;51.624;5.886;2023-04-29T12:48:03;17.35;;;10.23;;
62707;SDS011;48769;51.624;5.886;2023-04-29T12:53:02;17.77;;;10.57;;
62707;SDS011;48769;51.624;5.886;2023-04-29T12:55:30;15.95;;;10.27;;
62707;SDS011;48769;51.624;5.886;2023-04-29T12:58:00;13.73;;;9.95;;
62707;SDS011;48769;51.624;5.886;2023-04-29T13:00:26;14.90;;;10.65;;
62707;SDS011;48769;51.624;5.886;2023-04-29T13:02:52;12.77;;;9.30;;
62707;SDS011;48769;51.624;5.886;2023-04-29T13:05:17;12.07;;;9.18;;
62707;SDS011;48769;51.624;5.886;2023-04-29T13:07:42;15.77;;;10.77;;
62707;SDS011;48769;51.624;5.886;2023-04-29T13:10:08;15.75;;;10.52;;
62707;SDS011;48769;51.624;5.886;2023-04-29T13:12:36;12.73;;;10.00;;
62707;SDS011;48769;51.624;5.886;2023-04-29T13:15:01;12.95;;;9.50;;
62707;SDS011;48769;51.624;5.886;2023-04-29T13:17:27;14.43;;;9.25;;
62707;SDS011;48769;51.624;5.886;2023-04-29T13:19:52;12.15;;;9.02;;
62707;SDS011;48769;51.624;5.886;2023-04-29T13:22:17;11.85;;;8.85;;
62707;SDS011;48769;51.624;5.886;2023-04-29T13:24:43;13.23;;;8.52;;
62707;SDS011;48769;51.624;5.886;2023-04-29T13:27:09;14.05;;;8.57;;
62707;SDS011;48769;51.624;5.886;2023-04-29T13:29:34;12.35;;;8.65;;
62707;SDS011;48769;51.624;5.886;2023-04-29T13:32:00;11.93;;;7.63;;
62707;SDS011;48769;51.624;5.886;2023-04-29T13:34:25;10.32;;;6.85;;
62707;SDS011;48769;51.624;5.886;2023-04-29T13:36:50;12.50;;;8.18;;
62707;SDS011;48769;51.624;5.886;2023-04-29T13:39:15;9.27;;;7.22;;
62707;SDS011;48769;51.624;5.886;2023-04-29T13:41:41;10.75;;;6.70;;
62707;SDS011;48769;51.624;5.886;2023-04-29T13:44:07;7.75;;;6.93;;
62707;SDS011;48769;51.624;5.886;2023-04-29T13:46:32;9.57;;;7.20;;
62707;SDS011;48769;51.624;5.886;2023-04-29T13:48:57;11.23;;;7.57;;
62707;SDS011;48769;51.624;5.886;2023-04-29T13:51:23;8.82;;;6.70;;
62707;SDS011;48769;51.624;5.886;2023-04-29T13:53:48;8.90;;;7.20;;
62707;SDS011;48769;51.624;5.886;2023-04-29T13:56:14;9.13;;;7.00;;
62707;SDS011;48769;51.624;5.886;2023-04-29T13:58:40;9.70;;;6.85;;
62707;SDS011;48769;51.624;5.886;2023-04-29T14:01:05;8.20;;;6.68;;
62707;SDS011;48769;51.624;5.886;2023-04-29T14:03:31;8.73;;;6.82;;
62707;SDS011;48769;51.624;5.886;2023-04-29T14:05:56;10.30;;;6.85;;
62707;SDS011;48769;51.624;5.886;2023-04-29T14:08:22;10.57;;;6.30;;
62707;SDS011;48769;51.624;5.886;2023-04-29T14:10:47;9.07;;;6.15;;
62707;SDS011;48769;51.624;5.886;2023-04-29T14:13:13;7.38;;;5.20;;
62707;SDS011;48769;51.624;5.886;2023-04-29T14:15:38;7.88;;;4.85;;
62707;SDS011;48769;51.624;5.886;2023-04-29T14:18:04;10.65;;;6.38;;
62707;SDS011;48769;51.624;5.886;2023-04-29T14:20:31;8.48;;;5.40;;
62707;SDS011;48769;51.624;5.886;2023-04-29T14:22:57;9.98;;;6.72;;
62707;SDS011;48769;51.624;5.886;2023-04-29T14:25:22;9.55;;;5.90;;
62707;SDS011;48769;51.624;5.886;2023-04-29T14:27:47;7.20;;;5.95;;
62707;SDS011;48769;51.624;5.886;2023-04-29T14:30:13;7.97;;;6.75;;
62707;SDS011;48769;51.624;5.886;2023-04-29T14:32:38;10.30;;;7.25;;
62707;SDS011;48769;51.624;5.886;2023-04-29T14:35:04;12.05;;;7.35;;
62707;SDS011;48769;51.624;5.886;2023-04-29T14:37:29;9.43;;;7.35;;
62707;SDS011;48769;51.624;5.886;2023-04-29T14:39:55;6.95;;;6.25;;
62707;SDS011;48769;51.624;5.886;2023-04-29T14:42:20;10.30;;;6.88;;